createdAt,value
2023-04-15T00:00:58.312Z,8.07
2023-04-15T00:03:28.614Z,8.01
2023-04-15T00:05:56.928Z,8.00
2023-04-15T00:08:24.855Z,8.04
2023-04-15T00:10:52.707Z,7.99
2023-04-15T00:13:20.670Z,8.01
2023-04-15T00:15:48.596Z,8.01
2023-04-15T00:18:16.481Z,7.97
2023-04-15T00:20:45.610Z,8.00
2023-04-15T00:23:13.565Z,7.98
2023-04-15T00:25:41.738Z,7.96
2023-04-15T00:28:09.897Z,7.93
2023-04-15T00:30:38.000Z,8.02
2023-04-15T00:33:05.897Z,8.07
2023-04-15T00:35:33.828Z,8.04
2023-04-15T00:38:03.130Z,8.04
2023-04-15T00:40:31.059Z,8.04
2023-04-15T00:42:58.861Z,8.03
2023-04-15T00:45:27.553Z,8.04
2023-04-15T00:47:56.709Z,8.14
2023-04-15T00:50:25.002Z,8.08
2023-04-15T00:52:52.920Z,8.09
2023-04-15T00:55:22.227Z,8.11
2023-04-15T00:57:50.154Z,8.08
2023-04-15T01:00:18.078Z,8.08
2023-04-15T01:02:47.485Z,8.12
2023-04-15T01:05:17.518Z,8.19
2023-04-15T01:07:46.098Z,8.22
2023-04-15T01:10:14.284Z,8.21
2023-04-15T01:12:44.972Z,8.23
2023-04-15T01:15:13.008Z,8.25
2023-04-15T01:17:41.197Z,8.21
2023-04-15T01:20:12.093Z,8.20
2023-04-15T01:22:40.704Z,8.24
2023-04-15T01:25:13.117Z,8.24
2023-04-15T01:27:43.205Z,8.19
2023-04-15T01:30:12.108Z,8.26
2023-04-15T01:32:40.018Z,8.20
2023-04-15T01:35:27.004Z,8.16
2023-04-15T01:37:55.252Z,8.22
2023-04-15T01:40:23.012Z,8.23
2023-04-15T01:42:52.400Z,8.21
2023-04-15T01:45:20.418Z,8.23
2023-04-15T01:47:49.302Z,8.20
2023-04-15T01:50:17.377Z,8.20
2023-04-15T01:52:45.273Z,8.19
2023-04-15T01:55:13.911Z,8.14
2023-04-15T01:57:42.170Z,8.14
2023-04-15T02:00:12.659Z,8.22
2023-04-15T02:02:43.496Z,8.19
2023-04-15T02:05:11.543Z,8.20
2023-04-15T02:07:39.478Z,8.18
2023-04-15T02:10:07.937Z,8.24
2023-04-15T02:12:36.930Z,8.23
2023-04-15T02:15:05.401Z,8.22
2023-04-15T02:17:37.329Z,8.25
2023-04-15T02:20:06.754Z,8.19
2023-04-15T02:22:34.543Z,8.20
2023-04-15T02:25:02.415Z,8.18
2023-04-15T02:27:30.598Z,8.19
2023-04-15T02:29:58.465Z,8.27
2023-04-15T02:32:26.370Z,8.22
2023-04-15T02:34:57.397Z,8.23
2023-04-15T02:37:27.483Z,8.24
2023-04-15T02:39:56.582Z,8.28
2023-04-15T02:42:27.590Z,8.24
2023-04-15T02:44:56.264Z,8.27
2023-04-15T02:47:28.646Z,8.25
2023-04-15T02:50:00.402Z,8.25
2023-04-15T02:52:28.532Z,8.32
2023-04-15T02:55:00.589Z,8.34
2023-04-15T02:57:29.450Z,8.33
2023-04-15T02:59:59.704Z,8.32
2023-04-15T03:02:27.790Z,8.33
2023-04-15T03:04:56.213Z,8.37
2023-04-15T03:07:25.517Z,8.34
2023-04-15T03:09:54.423Z,8.43
2023-04-15T03:12:22.309Z,8.44
2023-04-15T03:14:51.766Z,8.43
2023-04-15T03:17:23.151Z,8.43
2023-04-15T03:19:51.373Z,8.44
2023-04-15T03:22:19.415Z,8.42
2023-04-15T03:24:49.005Z,8.47
2023-04-15T03:27:18.375Z,8.43
2023-04-15T03:29:46.376Z,8.44
2023-04-15T03:32:16.680Z,8.50
2023-04-15T03:34:44.741Z,8.51
2023-04-15T03:37:12.894Z,8.49
2023-04-15T03:39:40.708Z,8.50
2023-04-15T03:42:09.937Z,8.52
2023-04-15T03:44:38.358Z,8.54
2023-04-15T03:47:06.653Z,8.52
2023-04-15T03:49:34.506Z,8.56
2023-04-15T03:52:02.521Z,8.58
2023-04-15T03:54:30.491Z,8.55
2023-04-15T03:56:58.333Z,8.59
2023-04-15T03:59:27.553Z,8.59
2023-04-15T04:01:55.610Z,8.58
2023-04-15T04:04:23.883Z,8.64
2023-04-15T04:06:51.818Z,8.63
2023-04-15T04:09:19.694Z,8.61
2023-04-15T04:11:47.605Z,8.63
2023-04-15T04:14:15.433Z,8.69
2023-04-15T04:16:45.238Z,8.71
2023-04-15T04:19:14.675Z,8.69
2023-04-15T04:21:42.518Z,8.69
2023-04-15T04:24:10.328Z,8.66
2023-04-15T04:26:38.225Z,8.69
2023-04-15T04:29:06.400Z,8.70
2023-04-15T04:31:34.254Z,8.81
2023-04-15T04:34:03.488Z,8.75
2023-04-15T04:36:31.699Z,8.76
2023-04-15T04:38:59.802Z,8.78
2023-04-15T04:41:27.841Z,8.81
2023-04-15T04:43:55.934Z,8.88
2023-04-15T04:46:23.761Z,8.91
2023-04-15T04:48:51.641Z,8.92
2023-04-15T04:51:21.209Z,8.92
2023-04-15T04:53:49.218Z,8.90
2023-04-15T04:56:17.047Z,8.94
2023-04-15T04:58:44.926Z,8.99
2023-04-15T05:01:13.017Z,9.01
2023-04-15T05:03:41.099Z,9.00
2023-04-15T05:06:09.090Z,9.02
2023-04-15T05:08:39.918Z,9.02
2023-04-15T05:11:08.933Z,9.05
2023-04-15T05:13:38.588Z,9.11
2023-04-15T05:16:07.509Z,9.10
2023-04-15T05:18:35.555Z,9.09
2023-04-15T05:21:03.733Z,9.10
2023-04-15T05:23:31.641Z,9.10
2023-04-15T05:26:00.819Z,9.09
2023-04-15T05:28:28.685Z,9.12
2023-04-15T05:30:56.769Z,9.17
2023-04-15T05:33:24.904Z,9.17
2023-04-15T05:35:52.802Z,9.19
2023-04-15T05:38:20.707Z,9.32
2023-04-15T05:40:48.524Z,9.25
2023-04-15T05:43:17.781Z,9.21
2023-04-15T05:45:45.859Z,9.30
2023-04-15T05:48:13.699Z,9.31
2023-04-15T05:50:42.222Z,9.35
2023-04-15T05:53:10.033Z,9.44
2023-04-15T05:55:38.029Z,9.45
2023-04-15T05:58:05.880Z,9.53
2023-04-15T06:00:35.097Z,9.49
2023-04-15T06:03:03.975Z,9.51
2023-04-15T06:05:31.897Z,9.55
2023-04-15T06:07:59.944Z,9.44
2023-04-15T06:10:28.045Z,9.57
2023-04-15T06:12:55.894Z,9.68
2023-04-15T06:15:23.985Z,9.75
2023-04-15T06:17:53.224Z,9.75
2023-04-15T06:20:21.119Z,9.78
2023-04-15T06:22:49.021Z,9.94
2023-04-15T06:25:16.889Z,9.91
2023-04-15T06:27:44.761Z,10.11
2023-04-15T06:30:13.413Z,10.09
2023-04-15T06:32:41.406Z,9.94
2023-04-15T06:35:11.637Z,9.95
2023-04-15T06:37:39.461Z,10.03
2023-04-15T06:40:10.003Z,9.96
2023-04-15T06:42:38.216Z,10.17
2023-04-15T06:45:07.229Z,10.35
2023-04-15T06:47:35.065Z,10.18
2023-04-15T06:50:03.984Z,10.13
2023-04-15T06:52:33.257Z,10.20
2023-04-15T06:55:02.002Z,10.20
2023-04-15T06:57:29.870Z,10.43
2023-04-15T06:59:57.661Z,10.65
2023-04-15T07:02:25.687Z,10.49
2023-04-15T07:04:54.277Z,10.83
2023-04-15T07:07:22.196Z,10.78
2023-04-15T07:09:53.568Z,10.53
2023-04-15T07:12:21.570Z,10.54
2023-04-15T07:14:49.529Z,10.57
2023-04-15T07:17:17.705Z,10.78
2023-04-15T07:19:45.531Z,10.84
2023-04-15T07:22:13.435Z,10.85
2023-04-15T07:24:41.526Z,10.72
2023-04-15T07:27:10.827Z,10.61
2023-04-15T07:29:38.693Z,10.62
2023-04-15T07:32:06.981Z,10.73
2023-04-15T07:34:34.963Z,10.41
2023-04-15T07:37:03.477Z,10.32
2023-04-15T07:39:31.443Z,10.29
2023-04-15T07:41:59.703Z,10.12
2023-04-15T07:44:29.089Z,10.04
2023-04-15T07:46:57.484Z,10.02
2023-04-15T07:49:25.601Z,10.05
2023-04-15T07:51:53.438Z,10.06
2023-04-15T07:54:21.489Z,10.07
2023-04-15T07:56:49.500Z,10.14
2023-04-15T07:59:19.246Z,10.19
2023-04-15T08:01:48.964Z,10.23
2023-04-15T08:04:17.423Z,10.20
2023-04-15T08:06:45.387Z,10.13
2023-04-15T08:09:13.229Z,10.21
2023-04-15T08:11:42.909Z,10.24
2023-04-15T08:14:11.594Z,10.27
2023-04-15T08:16:39.576Z,10.14
2023-04-15T08:19:09.275Z,10.09
2023-04-15T08:21:37.651Z,9.96
2023-04-15T08:24:05.701Z,9.95
2023-04-15T08:26:33.663Z,10.06
2023-04-15T08:29:02.159Z,10.02
2023-04-15T08:31:31.046Z,10.05
2023-04-15T08:33:59.332Z,10.03
2023-04-15T08:36:28.581Z,10.15
2023-04-15T08:38:56.636Z,10.09
2023-04-15T08:41:25.599Z,10.15
2023-04-15T08:43:55.594Z,10.29
2023-04-15T08:46:23.728Z,10.04
2023-04-15T08:48:52.157Z,10.09
2023-04-15T08:51:20.043Z,10.13
2023-04-15T08:53:50.239Z,10.26
2023-04-15T08:56:18.514Z,10.16
2023-04-15T08:58:46.453Z,10.16
2023-04-15T09:01:15.075Z,10.20
2023-04-15T09:03:43.503Z,10.28
2023-04-15T09:06:11.809Z,10.36
2023-04-15T09:08:39.661Z,10.48
2023-04-15T09:11:08.845Z,10.48
2023-04-15T09:13:36.942Z,10.63
2023-04-15T09:16:07.106Z,10.51
2023-04-15T09:18:36.274Z,10.45
2023-04-15T09:21:08.899Z,10.53
2023-04-15T09:23:37.014Z,10.71
2023-04-15T09:26:05.816Z,10.51
2023-04-15T09:28:35.869Z,10.51
2023-04-15T09:31:03.962Z,10.49
2023-04-15T09:33:31.825Z,10.62
2023-04-15T09:36:01.401Z,10.72
2023-04-15T09:38:29.480Z,10.69
2023-04-15T09:40:57.950Z,10.50
2023-04-15T09:43:40.330Z,10.41
2023-04-15T09:46:08.309Z,10.34
2023-04-15T09:48:36.357Z,10.41
2023-04-15T09:51:04.365Z,10.39
2023-04-15T09:53:35.338Z,10.28
2023-04-15T09:56:03.413Z,10.30
2023-04-15T09:58:33.585Z,10.29
2023-04-15T10:01:05.223Z,10.23
2023-04-15T10:03:36.843Z,10.34
2023-04-15T10:06:05.397Z,10.31
2023-04-15T10:08:34.743Z,10.32
2023-04-15T10:11:03.460Z,10.14
2023-04-15T10:13:35.049Z,10.33
2023-04-15T10:16:07.765Z,10.27
2023-04-15T10:18:37.447Z,10.38
2023-04-15T10:21:07.255Z,10.31
2023-04-15T10:23:35.549Z,10.21
2023-04-15T10:26:05.448Z,10.20
2023-04-15T10:28:33.370Z,10.15
2023-04-15T10:31:01.534Z,10.24
2023-04-15T10:33:31.163Z,10.31
2023-04-15T10:35:59.264Z,10.25
2023-04-15T10:38:39.493Z,10.38
2023-04-15T10:41:20.098Z,10.36
2023-04-15T10:43:53.502Z,10.46
2023-04-15T10:46:24.003Z,10.43
2023-04-15T10:48:54.945Z,10.32
2023-04-15T10:51:31.228Z,10.24
2023-04-15T10:54:00.820Z,10.19
2023-04-15T10:56:30.309Z,10.24
2023-04-15T10:59:00.645Z,10.44
2023-04-15T11:01:53.139Z,10.42
2023-04-15T11:04:53.938Z,10.50
2023-04-15T11:07:38.470Z,10.42
2023-04-15T11:10:55.392Z,10.36
2023-04-15T11:13:25.803Z,10.36
2023-04-15T11:15:58.161Z,10.39
2023-04-15T11:18:28.265Z,10.36
2023-04-15T11:20:59.786Z,10.31
2023-04-15T11:23:33.175Z,10.25
2023-04-15T11:26:02.512Z,10.32
2023-04-15T11:28:31.530Z,10.43
2023-04-15T11:30:59.962Z,10.47
2023-04-15T11:33:27.876Z,10.51
2023-04-15T11:35:57.165Z,10.55
2023-04-15T11:38:25.326Z,10.56
2023-04-15T11:40:53.232Z,10.55
2023-04-15T11:43:22.647Z,10.58
2023-04-15T11:45:53.603Z,10.60
2023-04-15T11:48:22.652Z,10.49
2023-04-15T11:50:56.401Z,10.43
2023-04-15T11:53:27.540Z,10.44
2023-04-15T11:55:55.347Z,10.43
2023-04-15T11:58:24.522Z,10.50
2023-04-15T12:00:54.509Z,10.44
2023-04-15T12:03:27.336Z,10.42
2023-04-15T12:06:19.203Z,10.41
2023-04-15T12:09:08.682Z,10.53
2023-04-15T12:11:41.970Z,10.52
2023-04-15T12:14:12.801Z,10.47
2023-04-15T12:16:48.309Z,10.63
2023-04-15T12:19:19.890Z,10.69
2023-04-15T12:21:48.824Z,10.62
2023-04-15T12:24:21.987Z,10.63
2023-04-15T12:26:51.420Z,10.62
2023-04-15T12:29:19.365Z,10.71
2023-04-15T12:31:56.651Z,11.05
2023-04-15T12:34:29.374Z,11.20
2023-04-15T12:36:58.108Z,10.99
2023-04-15T12:39:30.610Z,11.09
2023-04-15T12:41:59.223Z,10.94
2023-04-15T12:44:27.822Z,10.95
2023-04-15T12:46:56.224Z,10.95
2023-04-15T12:49:25.432Z,10.98
2023-04-15T12:51:54.734Z,10.93
2023-04-15T12:54:22.710Z,10.85
2023-04-15T12:56:52.265Z,10.91
2023-04-15T12:59:20.225Z,10.96
2023-04-15T13:01:48.819Z,10.92
2023-04-15T13:04:17.470Z,10.98
2023-04-15T13:06:45.460Z,11.00
2023-04-15T13:09:13.542Z,11.17
2023-04-15T13:11:41.721Z,11.27
2023-04-15T13:14:11.378Z,11.16
2023-04-15T13:16:39.750Z,11.14
2023-04-15T13:19:07.958Z,11.18
2023-04-15T13:21:36.538Z,11.09
2023-04-15T13:24:06.971Z,10.87
2023-04-15T13:26:35.098Z,10.85
2023-04-15T13:29:02.993Z,11.02
2023-04-15T13:31:32.292Z,11.14
2023-04-15T13:34:00.414Z,11.26
2023-04-15T13:36:28.514Z,11.18
2023-04-15T13:38:56.952Z,11.23
2023-04-15T13:41:24.935Z,11.08
2023-04-15T13:43:52.769Z,11.17
2023-04-15T13:46:20.673Z,11.12
2023-04-15T13:48:50.020Z,11.00
2023-04-15T13:51:17.962Z,11.00
2023-04-15T13:53:45.935Z,10.97
2023-04-15T13:56:13.821Z,10.97
2023-04-15T13:58:41.930Z,10.94
2023-04-15T14:01:09.844Z,10.94
2023-04-15T14:03:38.022Z,10.84
2023-04-15T14:06:07.874Z,10.87
2023-04-15T14:08:35.899Z,10.73
2023-04-15T14:11:03.936Z,10.70
2023-04-15T14:13:31.836Z,10.75
2023-04-15T14:15:59.716Z,10.76
2023-04-15T14:18:27.530Z,10.78
2023-04-15T14:20:55.536Z,10.71
2023-04-15T14:23:24.821Z,10.72
2023-04-15T14:25:52.781Z,10.76
2023-04-15T14:28:20.696Z,10.75
2023-04-15T14:30:48.642Z,10.81
2023-04-15T14:33:16.788Z,10.78
2023-04-15T14:35:44.725Z,10.73
2023-04-15T14:38:12.609Z,10.79
2023-04-15T14:40:42.409Z,10.74
2023-04-15T14:43:10.370Z,10.67
2023-04-15T14:45:40.691Z,10.67
2023-04-15T14:48:12.541Z,10.55
2023-04-15T14:50:41.172Z,10.56
2023-04-15T14:53:09.123Z,10.61
2023-04-15T14:55:36.972Z,10.58
2023-04-15T14:58:08.134Z,10.52
2023-04-15T15:00:39.191Z,10.53
2023-04-15T15:03:12.507Z,10.58
2023-04-15T15:05:41.045Z,10.51
2023-04-15T15:08:09.140Z,10.50
2023-04-15T15:10:49.498Z,10.53
2023-04-15T15:13:19.725Z,10.49
2023-04-15T15:15:49.264Z,10.53
2023-04-15T15:18:18.748Z,10.46
2023-04-15T15:20:46.904Z,10.48
2023-04-15T15:23:15.523Z,10.50
2023-04-15T15:25:43.439Z,10.52
2023-04-15T15:28:11.374Z,10.38
2023-04-15T15:30:40.625Z,10.35
2023-04-15T15:33:08.425Z,10.37
2023-04-15T15:35:36.333Z,10.39
2023-04-15T15:38:04.199Z,10.32
2023-04-15T15:40:32.037Z,10.34
2023-04-15T15:42:59.886Z,10.39
2023-04-15T15:45:27.896Z,10.48
2023-04-15T15:47:58.269Z,10.49
2023-04-15T15:50:26.352Z,10.51
2023-04-15T15:52:55.065Z,10.63
2023-04-15T15:55:23.358Z,10.60
2023-04-15T15:57:51.384Z,10.58
2023-04-15T16:00:19.321Z,10.56
2023-04-15T16:05:19.586Z,10.58
2023-04-15T16:07:47.457Z,10.56
2023-04-15T16:10:15.927Z,10.56
2023-04-15T16:12:43.784Z,10.66
2023-04-15T16:15:12.907Z,10.71
2023-04-15T16:17:41.014Z,10.61
2023-04-15T16:20:09.956Z,10.63
2023-04-15T16:22:39.872Z,10.57
2023-04-15T16:25:08.520Z,10.55
2023-04-15T16:27:46.769Z,10.51
2023-04-15T16:30:24.608Z,10.53
2023-04-15T16:32:52.658Z,10.56
2023-04-15T16:35:20.890Z,10.56
2023-04-15T16:37:50.355Z,10.58
2023-04-15T16:40:18.407Z,10.58
2023-04-15T16:42:46.719Z,10.63
2023-04-15T16:45:15.016Z,10.68
2023-04-15T16:47:42.955Z,10.65
2023-04-15T16:50:12.189Z,10.53
2023-04-15T16:52:40.167Z,10.52
2023-04-15T16:55:09.903Z,10.49
2023-04-15T16:58:01.693Z,10.50
2023-04-15T17:00:25.917Z,10.51
2023-04-15T17:02:54.054Z,10.49
2023-04-15T17:05:21.994Z,10.49
2023-04-15T17:07:49.932Z,10.52
2023-04-15T17:10:19.652Z,10.51
2023-04-15T17:12:47.542Z,10.50
2023-04-15T17:15:15.374Z,10.48
2023-04-15T17:17:48.420Z,10.39
2023-04-15T17:20:17.357Z,10.40
2023-04-15T17:22:46.145Z,10.46
2023-04-15T17:25:15.051Z,10.43
2023-04-15T17:27:49.024Z,10.42
2023-04-15T17:30:21.340Z,10.42
2023-04-15T17:33:55.929Z,10.40
2023-04-15T17:36:17.221Z,10.43
2023-04-15T17:39:05.261Z,10.42
2023-04-15T17:41:53.221Z,10.41
2023-04-15T17:44:49.705Z,10.41
2023-04-15T17:47:37.573Z,10.42
2023-04-15T17:50:25.351Z,10.43
2023-04-15T17:53:13.160Z,10.37
2023-04-15T17:56:01.062Z,10.39
2023-04-15T17:58:48.822Z,10.37
2023-04-15T18:01:38.049Z,10.37
2023-04-15T18:04:26.910Z,10.42
2023-04-15T18:07:15.576Z,10.37
2023-04-15T18:10:03.444Z,10.33
2023-04-15T18:12:51.180Z,10.36
2023-04-15T18:15:39.024Z,10.35
2023-04-15T18:18:29.121Z,10.32
2023-04-15T18:21:01.514Z,10.32
2023-04-15T18:23:29.412Z,10.30
2023-04-15T18:25:58.225Z,10.28
2023-04-15T18:28:26.110Z,10.25
2023-04-15T18:30:54.579Z,10.20
2023-04-15T18:33:22.470Z,10.23
2023-04-15T18:35:51.720Z,10.19
2023-04-15T18:38:19.561Z,10.20
2023-04-15T18:40:47.418Z,10.16
2023-04-15T18:43:15.554Z,10.16
2023-04-15T18:45:44.023Z,10.17
2023-04-15T18:48:12.473Z,10.16
2023-04-15T18:50:40.326Z,10.15
2023-04-15T18:53:09.549Z,10.12
2023-04-15T18:55:37.436Z,10.15
2023-04-15T18:58:09.044Z,10.11
2023-04-15T19:00:40.554Z,10.10
2023-04-15T19:03:09.147Z,10.13
2023-04-15T19:05:37.159Z,10.11
2023-04-15T19:08:05.072Z,10.09
2023-04-15T19:10:35.126Z,10.06
2023-04-15T19:13:04.455Z,10.06
2023-04-15T19:15:32.508Z,10.00
2023-04-15T19:18:00.519Z,9.98
2023-04-15T19:20:28.379Z,9.95
2023-04-15T19:22:56.809Z,9.94
2023-04-15T19:25:24.813Z,9.93
2023-04-15T19:27:54.050Z,9.91
2023-04-15T19:30:22.296Z,9.96
2023-04-15T19:32:50.153Z,9.91
2023-04-15T19:35:18.226Z,9.91
2023-04-15T19:37:46.148Z,9.87
2023-04-15T19:40:14.091Z,9.90
2023-04-15T19:42:42.105Z,9.87
2023-04-15T19:45:14.764Z,9.86
2023-04-15T19:47:42.763Z,9.83
2023-04-15T19:50:11.882Z,9.83
2023-04-15T19:52:39.793Z,9.81
2023-04-15T19:55:10.988Z,9.87
2023-04-15T19:57:38.959Z,9.89
2023-04-15T20:00:08.125Z,9.91
2023-04-15T20:02:37.421Z,9.85
2023-04-15T20:05:09.618Z,9.89
2023-04-15T20:07:37.549Z,9.84
2023-04-15T20:10:12.431Z,9.82
2023-04-15T20:12:50.053Z,9.89
2023-04-15T20:15:20.800Z,9.82
2023-04-15T20:17:50.301Z,9.84
2023-04-15T20:20:18.282Z,9.78
2023-04-15T20:22:46.237Z,9.86
2023-04-15T20:25:14.148Z,9.88
2023-04-15T20:27:41.986Z,9.83
2023-04-15T20:30:13.097Z,9.89
2023-04-15T20:32:41.057Z,9.83
2023-04-15T20:35:12.709Z,9.85
2023-04-15T20:37:40.653Z,9.89
2023-04-15T20:40:09.745Z,9.89
2023-04-15T20:42:37.901Z,9.87
2023-04-15T20:45:07.017Z,9.82
2023-04-15T20:47:34.901Z,9.81
2023-04-15T20:50:03.367Z,9.77
2023-04-15T20:52:32.568Z,9.80
2023-04-15T20:55:00.710Z,9.87
2023-04-15T20:57:30.069Z,9.86
2023-04-15T20:59:57.971Z,9.83
2023-04-15T21:02:26.052Z,9.85
2023-04-15T21:04:54.085Z,9.88
2023-04-15T21:07:24.085Z,9.87
2023-04-15T21:09:55.145Z,9.85
2023-04-15T21:12:23.086Z,9.87
2023-04-15T21:14:51.177Z,9.85
2023-04-15T21:17:19.245Z,9.80
2023-04-15T21:19:47.334Z,9.80
2023-04-15T21:22:15.212Z,9.77
2023-04-15T21:24:43.269Z,9.79
2023-04-15T21:27:12.470Z,9.79
2023-04-15T21:29:41.325Z,9.76
2023-04-15T21:32:09.476Z,9.78
2023-04-15T21:34:37.469Z,9.82
2023-04-15T21:37:05.310Z,9.80
2023-04-15T21:39:33.406Z,9.87
2023-04-15T21:42:01.334Z,9.83
2023-04-15T21:44:30.562Z,9.81
2023-04-15T21:46:58.543Z,9.82
2023-04-15T21:49:26.774Z,9.77
2023-04-15T21:51:54.682Z,9.80
2023-04-15T21:54:22.694Z,9.81
2023-04-15T21:56:50.835Z,9.81
2023-04-15T21:59:18.783Z,9.76
2023-04-15T22:01:48.233Z,9.76
2023-04-15T22:04:16.357Z,9.73
2023-04-15T22:06:44.326Z,9.73
2023-04-15T22:09:14.125Z,9.71
2023-04-15T22:11:42.306Z,9.73
2023-04-15T22:14:10.447Z,9.73
2023-04-15T22:16:38.410Z,9.75
2023-04-15T22:19:07.908Z,9.74
2023-04-15T22:21:35.963Z,9.73
2023-04-15T22:24:38.762Z,9.69
2023-04-15T22:26:52.096Z,9.65
2023-04-15T22:29:20.113Z,9.70
2023-04-15T22:31:48.052Z,9.70
2023-04-15T22:34:21.197Z,9.72
2023-04-15T22:36:49.152Z,9.75
2023-04-15T22:39:17.168Z,9.74
2023-04-15T22:41:45.506Z,9.73
2023-04-15T22:44:13.501Z,9.72
2023-04-15T22:46:41.561Z,9.74
2023-04-15T22:49:10.471Z,9.72
2023-04-15T22:51:39.686Z,9.73
2023-04-15T22:54:07.621Z,9.78
2023-04-15T22:56:35.658Z,9.71
2023-04-15T22:59:03.557Z,9.77
2023-04-15T23:01:32.168Z,9.73
2023-04-15T23:04:23.042Z,9.72
2023-04-15T23:06:49.376Z,9.71
2023-04-15T23:09:17.209Z,9.71
2023-04-15T23:11:45.165Z,9.72
2023-04-15T23:14:12.973Z,9.74
2023-04-15T23:16:41.005Z,9.74
2023-04-15T23:19:09.442Z,9.70
2023-04-15T23:21:37.504Z,9.70
2023-04-15T23:24:07.249Z,9.67
2023-04-15T23:26:35.214Z,9.68
2023-04-15T23:29:03.055Z,9.68
2023-04-15T23:31:30.986Z,9.66
2023-04-15T23:33:58.983Z,9.68
2023-04-15T23:36:27.168Z,9.68
2023-04-15T23:38:55.131Z,9.66
2023-04-15T23:41:24.360Z,9.64
2023-04-15T23:43:52.300Z,9.63
2023-04-15T23:46:20.248Z,9.60
2023-04-15T23:48:49.067Z,9.65
2023-04-15T23:51:17.247Z,9.64
2023-04-15T23:53:45.399Z,9.72
2023-04-15T23:56:13.333Z,9.70
2023-04-15T23:58:42.612Z,9.68
